sensor_id;sensor_type;location;lat;lon;timestamp;P1;durP1;ratioP1;P2;durP2;ratioP2
20956;SDS011;10637;47.970;7.830;2023-07-31T00:04:38;11.67;;;2.37;;
20956;SDS011;10637;47.970;7.830;2023-07-31T00:09:39;11.10;;;2.93;;
20956;SDS011;10637;47.970;7.830;2023-07-31T00:14:41;10.10;;;2.40;;
20956;SDS011;10637;47.970;7.830;2023-07-31T00:19:43;8.97;;;2.80;;
20956;SDS011;10637;47.970;7.830;2023-07-31T00:24:47;9.47;;;2.63;;
20956;SDS011;10637;47.970;7.830;2023-07-31T00:29:49;7.03;;;2.60;;
20956;SDS011;10637;47.970;7.830;2023-07-31T00:34:51;8.60;;;2.50;;
20956;SDS011;10637;47.970;7.830;2023-07-31T00:39:52;10.20;;;3.00;;
20956;SDS011;10637;47.970;7.830;2023-07-31T00:44:54;8.70;;;2.60;;
20956;SDS011;10637;47.970;7.830;2023-07-31T00:49:56;8.97;;;2.53;;
20956;SDS011;10637;47.970;7.830;2023-07-31T00:55:08;10.93;;;2.67;;
20956;SDS011;10637;47.970;7.830;2023-07-31T01:00:10;9.80;;;2.63;;
20956;SDS011;10637;47.970;7.830;2023-07-31T01:05:12;8.63;;;2.37;;
20956;SDS011;10637;47.970;7.830;2023-07-31T01:10:19;8.70;;;2.20;;
20956;SDS011;10637;47.970;7.830;2023-07-31T01:15:24;9.97;;;2.53;;
20956;SDS011;10637;47.970;7.830;2023-07-31T01:20:26;9.10;;;2.50;;
20956;SDS011;10637;47.970;7.830;2023-07-31T01:25:44;8.93;;;2.20;;
20956;SDS011;10637;47.970;7.830;2023-07-31T01:30:58;7.13;;;2.10;;
20956;SDS011;10637;47.970;7.830;2023-07-31T01:36:03;6.73;;;2.30;;
20956;SDS011;10637;47.970;7.830;2023-07-31T01:41:06;8.93;;;2.10;;
20956;SDS011;10637;47.970;7.830;2023-07-31T01:46:07;8.60;;;2.43;;
20956;SDS011;10637;47.970;7.830;2023-07-31T01:51:09;11.10;;;2.70;;
20956;SDS011;10637;47.970;7.830;2023-07-31T01:56:11;12.13;;;2.93;;
20956;SDS011;10637;47.970;7.830;2023-07-31T02:01:13;8.90;;;2.60;;
20956;SDS011;10637;47.970;7.830;2023-07-31T02:06:15;9.00;;;2.87;;
20956;SDS011;10637;47.970;7.830;2023-07-31T02:11:16;9.93;;;2.50;;
20956;SDS011;10637;47.970;7.830;2023-07-31T02:16:18;8.17;;;2.17;;
20956;SDS011;10637;47.970;7.830;2023-07-31T02:21:22;8.03;;;2.20;;
20956;SDS011;10637;47.970;7.830;2023-07-31T02:26:24;11.13;;;2.60;;
20956;SDS011;10637;47.970;7.830;2023-07-31T02:31:26;9.00;;;2.60;;
20956;SDS011;10637;47.970;7.830;2023-07-31T02:36:28;8.97;;;2.40;;
20956;SDS011;10637;47.970;7.830;2023-07-31T02:41:30;8.47;;;2.17;;
20956;SDS011;10637;47.970;7.830;2023-07-31T02:46:31;7.90;;;2.20;;
20956;SDS011;10637;47.970;7.830;2023-07-31T02:51:33;9.17;;;2.67;;
20956;SDS011;10637;47.970;7.830;2023-07-31T02:56:35;7.60;;;2.40;;
20956;SDS011;10637;47.970;7.830;2023-07-31T03:01:40;7.97;;;2.53;;
20956;SDS011;10637;47.970;7.830;2023-07-31T03:06:41;10.83;;;2.67;;
20956;SDS011;10637;47.970;7.830;2023-07-31T03:11:43;8.80;;;2.80;;
20956;SDS011;10637;47.970;7.830;2023-07-31T03:16:45;10.00;;;2.63;;
20956;SDS011;10637;47.970;7.830;2023-07-31T03:21:47;10.50;;;2.73;;
20956;SDS011;10637;47.970;7.830;2023-07-31T03:26:49;8.43;;;2.47;;
20956;SDS011;10637;47.970;7.830;2023-07-31T03:31:50;10.07;;;2.60;;
20956;SDS011;10637;47.970;7.830;2023-07-31T03:36:53;12.47;;;2.87;;
20956;SDS011;10637;47.970;7.830;2023-07-31T03:41:55;10.80;;;3.00;;
20956;SDS011;10637;47.970;7.830;2023-07-31T03:46:57;8.37;;;2.40;;
20956;SDS011;10637;47.970;7.830;2023-07-31T03:51:59;9.60;;;2.70;;
20956;SDS011;10637;47.970;7.830;2023-07-31T03:57:00;8.17;;;2.83;;
20956;SDS011;10637;47.970;7.830;2023-07-31T04:02:02;10.97;;;2.80;;
20956;SDS011;10637;47.970;7.830;2023-07-31T04:07:04;11.23;;;2.50;;
20956;SDS011;10637;47.970;7.830;2023-07-31T04:12:06;10.80;;;2.50;;
20956;SDS011;10637;47.970;7.830;2023-07-31T04:17:08;11.03;;;2.70;;
20956;SDS011;10637;47.970;7.830;2023-07-31T04:22:12;7.87;;;2.50;;
20956;SDS011;10637;47.970;7.830;2023-07-31T04:27:14;9.03;;;2.93;;
20956;SDS011;10637;47.970;7.830;2023-07-31T04:32:23;11.03;;;2.70;;
20956;SDS011;10637;47.970;7.830;2023-07-31T04:37:25;12.07;;;3.40;;
20956;SDS011;10637;47.970;7.830;2023-07-31T04:42:27;10.70;;;3.07;;
20956;SDS011;10637;47.970;7.830;2023-07-31T04:47:29;9.60;;;2.80;;
20956;SDS011;10637;47.970;7.830;2023-07-31T04:52:31;9.87;;;2.70;;
20956;SDS011;10637;47.970;7.830;2023-07-31T04:57:33;10.60;;;2.77;;
20956;SDS011;10637;47.970;7.830;2023-07-31T05:02:41;11.20;;;3.03;;
20956;SDS011;10637;47.970;7.830;2023-07-31T05:07:43;8.77;;;2.70;;
20956;SDS011;10637;47.970;7.830;2023-07-31T05:12:45;10.67;;;2.93;;
20956;SDS011;10637;47.970;7.830;2023-07-31T05:17:47;9.77;;;3.00;;
20956;SDS011;10637;47.970;7.830;2023-07-31T05:22:49;8.50;;;2.70;;
20956;SDS011;10637;47.970;7.830;2023-07-31T05:27:55;9.23;;;2.57;;
20956;SDS011;10637;47.970;7.830;2023-07-31T05:32:57;9.10;;;3.07;;
20956;SDS011;10637;47.970;7.830;2023-07-31T05:37:59;9.77;;;3.13;;
20956;SDS011;10637;47.970;7.830;2023-07-31T05:43:01;12.70;;;3.37;;
20956;SDS011;10637;47.970;7.830;2023-07-31T05:48:03;10.97;;;2.80;;
20956;SDS011;10637;47.970;7.830;2023-07-31T05:53:06;10.00;;;2.83;;
20956;SDS011;10637;47.970;7.830;2023-07-31T05:58:09;10.97;;;3.13;;
20956;SDS011;10637;47.970;7.830;2023-07-31T06:03:14;11.07;;;3.03;;
20956;SDS011;10637;47.970;7.830;2023-07-31T06:08:16;9.50;;;3.00;;
20956;SDS011;10637;47.970;7.830;2023-07-31T06:13:18;8.60;;;2.50;;
20956;SDS011;10637;47.970;7.830;2023-07-31T06:18:20;13.10;;;3.03;;
20956;SDS011;10637;47.970;7.830;2023-07-31T06:23:21;12.63;;;2.63;;
20956;SDS011;10637;47.970;7.830;2023-07-31T06:28:27;8.73;;;2.50;;
20956;SDS011;10637;47.970;7.830;2023-07-31T06:33:31;9.17;;;2.60;;
20956;SDS011;10637;47.970;7.830;2023-07-31T06:38:33;10.50;;;2.90;;
20956;SDS011;10637;47.970;7.830;2023-07-31T06:43:35;11.67;;;3.60;;
20956;SDS011;10637;47.970;7.830;2023-07-31T06:48:38;13.00;;;3.60;;
20956;SDS011;10637;47.970;7.830;2023-07-31T06:53:40;11.27;;;3.43;;
20956;SDS011;10637;47.970;7.830;2023-07-31T06:58:42;10.20;;;3.17;;
20956;SDS011;10637;47.970;7.830;2023-07-31T07:03:44;10.37;;;3.10;;
20956;SDS011;10637;47.970;7.830;2023-07-31T07:08:54;10.33;;;2.90;;
20956;SDS011;10637;47.970;7.830;2023-07-31T07:13:55;20.90;;;6.33;;
20956;SDS011;10637;47.970;7.830;2023-07-31T07:18:57;14.30;;;3.00;;
20956;SDS011;10637;47.970;7.830;2023-07-31T07:24:05;27.40;;;6.53;;
20956;SDS011;10637;47.970;7.830;2023-07-31T07:29:07;11.40;;;3.87;;
20956;SDS011;10637;47.970;7.830;2023-07-31T07:34:09;17.73;;;4.80;;
20956;SDS011;10637;47.970;7.830;2023-07-31T07:39:12;19.87;;;5.80;;
20956;SDS011;10637;47.970;7.830;2023-07-31T07:44:14;12.70;;;3.30;;
20956;SDS011;10637;47.970;7.830;2023-07-31T07:49:16;10.37;;;2.97;;
20956;SDS011;10637;47.970;7.830;2023-07-31T07:54:18;11.63;;;2.90;;
20956;SDS011;10637;47.970;7.830;2023-07-31T07:59:21;12.37;;;2.80;;
20956;SDS011;10637;47.970;7.830;2023-07-31T08:04:25;8.60;;;2.80;;
20956;SDS011;10637;47.970;7.830;2023-07-31T08:09:27;9.47;;;2.63;;
20956;SDS011;10637;47.970;7.830;2023-07-31T08:14:28;10.73;;;2.90;;
20956;SDS011;10637;47.970;7.830;2023-07-31T08:19:33;12.53;;;2.87;;
20956;SDS011;10637;47.970;7.830;2023-07-31T08:24:35;11.00;;;2.63;;
20956;SDS011;10637;47.970;7.830;2023-07-31T08:29:42;10.17;;;2.70;;
20956;SDS011;10637;47.970;7.830;2023-07-31T08:34:44;12.07;;;3.17;;
20956;SDS011;10637;47.970;7.830;2023-07-31T08:39:46;9.13;;;2.23;;
20956;SDS011;10637;47.970;7.830;2023-07-31T08:44:48;9.97;;;2.50;;
20956;SDS011;10637;47.970;7.830;2023-07-31T08:49:51;9.17;;;2.60;;
20956;SDS011;10637;47.970;7.830;2023-07-31T08:54:54;13.83;;;2.63;;
20956;SDS011;10637;47.970;7.830;2023-07-31T08:59:56;9.60;;;2.63;;
20956;SDS011;10637;47.970;7.830;2023-07-31T09:05:08;9.70;;;2.50;;
20956;SDS011;10637;47.970;7.830;2023-07-31T09:10:12;8.57;;;2.63;;
20956;SDS011;10637;47.970;7.830;2023-07-31T09:15:14;10.33;;;2.73;;
20956;SDS011;10637;47.970;7.830;2023-07-31T09:20:36;11.63;;;2.60;;
20956;SDS011;10637;47.970;7.830;2023-07-31T09:25:40;8.73;;;2.60;;
20956;SDS011;10637;47.970;7.830;2023-07-31T09:30:49;13.20;;;2.70;;
20956;SDS011;10637;47.970;7.830;2023-07-31T09:35:52;9.77;;;2.90;;
20956;SDS011;10637;47.970;7.830;2023-07-31T09:40:54;9.20;;;2.20;;
20956;SDS011;10637;47.970;7.830;2023-07-31T09:45:59;9.03;;;3.00;;
20956;SDS011;10637;47.970;7.830;2023-07-31T09:51:01;11.10;;;2.50;;
20956;SDS011;10637;47.970;7.830;2023-07-31T09:56:06;10.97;;;3.17;;
20956;SDS011;10637;47.970;7.830;2023-07-31T10:01:08;9.87;;;2.87;;
20956;SDS011;10637;47.970;7.830;2023-07-31T10:06:11;10.53;;;2.80;;
20956;SDS011;10637;47.970;7.830;2023-07-31T10:11:16;10.23;;;3.03;;
20956;SDS011;10637;47.970;7.830;2023-07-31T10:16:27;11.77;;;2.80;;
20956;SDS011;10637;47.970;7.830;2023-07-31T10:21:32;11.97;;;3.40;;
20956;SDS011;10637;47.970;7.830;2023-07-31T10:26:36;12.13;;;3.37;;
20956;SDS011;10637;47.970;7.830;2023-07-31T10:31:40;9.63;;;2.87;;
20956;SDS011;10637;47.970;7.830;2023-07-31T10:36:42;16.83;;;2.93;;
20956;SDS011;10637;47.970;7.830;2023-07-31T10:41:44;8.87;;;2.70;;
20956;SDS011;10637;47.970;7.830;2023-07-31T10:46:50;11.83;;;3.30;;
20956;SDS011;10637;47.970;7.830;2023-07-31T10:51:56;11.97;;;3.50;;
20956;SDS011;10637;47.970;7.830;2023-07-31T10:56:58;9.43;;;2.80;;
20956;SDS011;10637;47.970;7.830;2023-07-31T11:02:00;11.83;;;3.03;;
20956;SDS011;10637;47.970;7.830;2023-07-31T11:07:04;11.10;;;3.60;;
20956;SDS011;10637;47.970;7.830;2023-07-31T11:12:09;12.47;;;3.10;;
20956;SDS011;10637;47.970;7.830;2023-07-31T11:17:13;12.20;;;3.37;;
20956;SDS011;10637;47.970;7.830;2023-07-31T11:22:14;9.43;;;2.90;;
20956;SDS011;10637;47.970;7.830;2023-07-31T11:27:17;14.20;;;3.20;;
20956;SDS011;10637;47.970;7.830;2023-07-31T11:32:19;12.70;;;3.23;;
20956;SDS011;10637;47.970;7.830;2023-07-31T11:37:22;11.77;;;3.27;;
20956;SDS011;10637;47.970;7.830;2023-07-31T11:42:24;11.67;;;3.00;;
20956;SDS011;10637;47.970;7.830;2023-07-31T11:47:26;11.93;;;3.20;;
20956;SDS011;10637;47.970;7.830;2023-07-31T11:52:29;10.60;;;3.00;;
20956;SDS011;10637;47.970;7.830;2023-07-31T11:57:33;10.57;;;3.20;;
20956;SDS011;10637;47.970;7.830;2023-07-31T12:02:35;11.53;;;3.23;;
20956;SDS011;10637;47.970;7.830;2023-07-31T12:07:44;13.27;;;3.10;;
20956;SDS011;10637;47.970;7.830;2023-07-31T12:13:10;10.53;;;3.00;;
20956;SDS011;10637;47.970;7.830;2023-07-31T12:18:18;9.57;;;3.07;;
20956;SDS011;10637;47.970;7.830;2023-07-31T12:23:32;11.13;;;3.70;;
20956;SDS011;10637;47.970;7.830;2023-07-31T12:28:36;11.00;;;3.20;;
20956;SDS011;10637;47.970;7.830;2023-07-31T12:33:45;11.63;;;4.37;;
20956;SDS011;10637;47.970;7.830;2023-07-31T12:38:48;12.87;;;3.70;;
20956;SDS011;10637;47.970;7.830;2023-07-31T12:43:59;13.87;;;3.80;;
20956;SDS011;10637;47.970;7.830;2023-07-31T12:49:01;13.93;;;3.30;;
20956;SDS011;10637;47.970;7.830;2023-07-31T12:54:03;10.27;;;3.20;;
20956;SDS011;10637;47.970;7.830;2023-07-31T12:59:05;11.10;;;3.80;;
20956;SDS011;10637;47.970;7.830;2023-07-31T13:04:10;9.07;;;3.30;;
20956;SDS011;10637;47.970;7.830;2023-07-31T13:09:15;13.60;;;3.43;;
20956;SDS011;10637;47.970;7.830;2023-07-31T13:14:18;13.30;;;3.50;;
20956;SDS011;10637;47.970;7.830;2023-07-31T13:19:20;9.47;;;3.40;;
20956;SDS011;10637;47.970;7.830;2023-07-31T13:24:22;11.03;;;3.70;;
20956;SDS011;10637;47.970;7.830;2023-07-31T13:29:24;9.43;;;3.27;;
20956;SDS011;10637;47.970;7.830;2023-07-31T13:34:33;11.43;;;3.37;;
20956;SDS011;10637;47.970;7.830;2023-07-31T13:39:35;13.30;;;3.67;;
20956;SDS011;10637;47.970;7.830;2023-07-31T13:44:37;12.90;;;3.83;;
20956;SDS011;10637;47.970;7.830;2023-07-31T13:49:40;11.43;;;3.63;;
20956;SDS011;10637;47.970;7.830;2023-07-31T13:54:44;11.03;;;3.73;;
20956;SDS011;10637;47.970;7.830;2023-07-31T13:59:46;13.60;;;4.33;;
20956;SDS011;10637;47.970;7.830;2023-07-31T14:04:48;12.50;;;3.43;;
20956;SDS011;10637;47.970;7.830;2023-07-31T14:09:50;9.90;;;3.70;;
20956;SDS011;10637;47.970;7.830;2023-07-31T14:14:51;11.40;;;4.13;;
20956;SDS011;10637;47.970;7.830;2023-07-31T14:19:54;11.60;;;3.60;;
20956;SDS011;10637;47.970;7.830;2023-07-31T14:24:56;11.60;;;3.50;;
20956;SDS011;10637;47.970;7.830;2023-07-31T14:29:58;11.30;;;3.40;;
20956;SDS011;10637;47.970;7.830;2023-07-31T14:35:00;11.30;;;3.30;;
20956;SDS011;10637;47.970;7.830;2023-07-31T14:40:05;10.90;;;3.37;;
20956;SDS011;10637;47.970;7.830;2023-07-31T14:45:09;11.93;;;3.37;;
20956;SDS011;10637;47.970;7.830;2023-07-31T14:50:11;9.80;;;3.30;;
20956;SDS011;10637;47.970;7.830;2023-07-31T14:55:13;13.37;;;3.33;;
20956;SDS011;10637;47.970;7.830;2023-07-31T15:00:15;12.03;;;3.57;;
20956;SDS011;10637;47.970;7.830;2023-07-31T15:05:18;8.70;;;2.87;;
20956;SDS011;10637;47.970;7.830;2023-07-31T15:10:22;10.83;;;3.70;;
20956;SDS011;10637;47.970;7.830;2023-07-31T15:15:26;10.40;;;3.93;;
20956;SDS011;10637;47.970;7.830;2023-07-31T15:20:28;9.37;;;2.77;;
20956;SDS011;10637;47.970;7.830;2023-07-31T15:25:30;9.83;;;3.60;;
20956;SDS011;10637;47.970;7.830;2023-07-31T15:30:32;10.50;;;3.23;;
20956;SDS011;10637;47.970;7.830;2023-07-31T15:35:34;9.77;;;2.80;;
20956;SDS011;10637;47.970;7.830;2023-07-31T15:40:38;8.30;;;2.90;;
20956;SDS011;10637;47.970;7.830;2023-07-31T15:45:40;9.70;;;2.70;;
20956;SDS011;10637;47.970;7.830;2023-07-31T15:50:42;9.40;;;2.77;;
20956;SDS011;10637;47.970;7.830;2023-07-31T15:55:44;9.10;;;2.70;;
20956;SDS011;10637;47.970;7.830;2023-07-31T16:00:46;8.50;;;2.93;;
20956;SDS011;10637;47.970;7.830;2023-07-31T16:05:48;11.17;;;3.30;;
20956;SDS011;10637;47.970;7.830;2023-07-31T16:10:50;10.77;;;3.47;;
20956;SDS011;10637;47.970;7.830;2023-07-31T16:15:52;9.50;;;3.00;;
20956;SDS011;10637;47.970;7.830;2023-07-31T16:20:54;10.63;;;2.90;;
20956;SDS011;10637;47.970;7.830;2023-07-31T16:26:03;9.83;;;2.87;;
20956;SDS011;10637;47.970;7.830;2023-07-31T16:31:05;12.67;;;2.77;;
20956;SDS011;10637;47.970;7.830;2023-07-31T16:36:08;10.80;;;3.43;;
20956;SDS011;10637;47.970;7.830;2023-07-31T16:41:10;10.67;;;4.07;;
20956;SDS011;10637;47.970;7.830;2023-07-31T16:46:12;10.47;;;3.07;;
20956;SDS011;10637;47.970;7.830;2023-07-31T16:51:16;11.13;;;3.20;;
20956;SDS011;10637;47.970;7.830;2023-07-31T16:56:18;9.53;;;3.27;;
20956;SDS011;10637;47.970;7.830;2023-07-31T17:01:21;11.43;;;4.17;;
20956;SDS011;10637;47.970;7.830;2023-07-31T17:06:27;13.40;;;3.53;;
20956;SDS011;10637;47.970;7.830;2023-07-31T17:11:32;14.03;;;3.50;;
20956;SDS011;10637;47.970;7.830;2023-07-31T17:16:37;11.63;;;3.50;;
20956;SDS011;10637;47.970;7.830;2023-07-31T17:21:39;10.07;;;3.43;;
20956;SDS011;10637;47.970;7.830;2023-07-31T17:26:41;10.20;;;3.60;;
20956;SDS011;10637;47.970;7.830;2023-07-31T17:31:43;11.73;;;3.53;;
20956;SDS011;10637;47.970;7.830;2023-07-31T17:36:45;11.93;;;3.00;;
20956;SDS011;10637;47.970;7.830;2023-07-31T17:41:49;9.47;;;3.27;;
20956;SDS011;10637;47.970;7.830;2023-07-31T17:46:51;11.13;;;3.30;;
20956;SDS011;10637;47.970;7.830;2023-07-31T17:51:53;8.67;;;2.90;;
20956;SDS011;10637;47.970;7.830;2023-07-31T17:56:55;9.70;;;3.57;;
20956;SDS011;10637;47.970;7.830;2023-07-31T18:01:57;11.73;;;3.40;;
20956;SDS011;10637;47.970;7.830;2023-07-31T18:06:59;12.20;;;4.37;;
20956;SDS011;10637;47.970;7.830;2023-07-31T18:12:00;22.07;;;9.03;;
20956;SDS011;10637;47.970;7.830;2023-07-31T18:17:02;30.03;;;15.60;;
20956;SDS011;10637;47.970;7.830;2023-07-31T18:22:09;18.07;;;8.90;;
20956;SDS011;10637;47.970;7.830;2023-07-31T18:27:11;13.33;;;5.90;;
20956;SDS011;10637;47.970;7.830;2023-07-31T18:32:15;10.50;;;3.80;;
20956;SDS011;10637;47.970;7.830;2023-07-31T18:37:17;11.00;;;3.80;;
20956;SDS011;10637;47.970;7.830;2023-07-31T18:42:19;9.17;;;3.50;;
20956;SDS011;10637;47.970;7.830;2023-07-31T18:47:25;10.97;;;3.50;;
20956;SDS011;10637;47.970;7.830;2023-07-31T18:52:27;9.93;;;3.10;;
20956;SDS011;10637;47.970;7.830;2023-07-31T18:57:29;11.17;;;3.97;;
20956;SDS011;10637;47.970;7.830;2023-07-31T19:02:31;9.73;;;3.40;;
20956;SDS011;10637;47.970;7.830;2023-07-31T19:07:33;12.80;;;3.80;;
20956;SDS011;10637;47.970;7.830;2023-07-31T19:12:35;9.73;;;3.43;;
20956;SDS011;10637;47.970;7.830;2023-07-31T19:17:38;10.87;;;3.50;;
20956;SDS011;10637;47.970;7.830;2023-07-31T19:22:40;11.97;;;3.33;;
20956;SDS011;10637;47.970;7.830;2023-07-31T19:27:49;10.97;;;3.90;;
20956;SDS011;10637;47.970;7.830;2023-07-31T19:33:00;17.33;;;3.70;;
20956;SDS011;10637;47.970;7.830;2023-07-31T19:38:02;10.70;;;3.83;;
20956;SDS011;10637;47.970;7.830;2023-07-31T19:43:04;9.33;;;3.60;;
20956;SDS011;10637;47.970;7.830;2023-07-31T19:48:06;10.50;;;3.50;;
20956;SDS011;10637;47.970;7.830;2023-07-31T19:53:10;13.33;;;4.20;;
20956;SDS011;10637;47.970;7.830;2023-07-31T19:58:11;10.70;;;3.57;;
20956;SDS011;10637;47.970;7.830;2023-07-31T20:03:22;10.13;;;3.60;;
20956;SDS011;10637;47.970;7.830;2023-07-31T20:08:24;10.70;;;4.07;;
20956;SDS011;10637;47.970;7.830;2023-07-31T20:13:26;13.50;;;4.00;;
20956;SDS011;10637;47.970;7.830;2023-07-31T20:18:28;13.27;;;3.83;;
20956;SDS011;10637;47.970;7.830;2023-07-31T20:23:29;9.90;;;4.23;;
20956;SDS011;10637;47.970;7.830;2023-07-31T20:28:43;12.03;;;4.20;;
20956;SDS011;10637;47.970;7.830;2023-07-31T20:33:46;10.20;;;4.10;;
20956;SDS011;10637;47.970;7.830;2023-07-31T20:38:48;11.10;;;3.93;;
20956;SDS011;10637;47.970;7.830;2023-07-31T20:43:49;10.20;;;3.80;;
20956;SDS011;10637;47.970;7.830;2023-07-31T20:48:51;10.17;;;3.83;;
20956;SDS011;10637;47.970;7.830;2023-07-31T20:53:53;10.20;;;4.03;;
20956;SDS011;10637;47.970;7.830;2023-07-31T20:58:55;13.47;;;4.70;;
20956;SDS011;10637;47.970;7.830;2023-07-31T21:03:57;12.33;;;3.77;;
20956;SDS011;10637;47.970;7.830;2023-07-31T21:08:59;9.70;;;3.53;;
20956;SDS011;10637;47.970;7.830;2023-07-31T21:14:01;11.80;;;3.70;;
20956;SDS011;10637;47.970;7.830;2023-07-31T21:19:03;10.73;;;3.83;;
20956;SDS011;10637;47.970;7.830;2023-07-31T21:24:05;12.33;;;3.77;;
20956;SDS011;10637;47.970;7.830;2023-07-31T21:29:06;10.80;;;4.27;;
20956;SDS011;10637;47.970;7.830;2023-07-31T21:34:11;9.73;;;3.50;;
20956;SDS011;10637;47.970;7.830;2023-07-31T21:39:13;10.93;;;3.77;;
20956;SDS011;10637;47.970;7.830;2023-07-31T21:44:15;10.70;;;4.10;;
20956;SDS011;10637;47.970;7.830;2023-07-31T21:49:17;9.83;;;3.87;;
20956;SDS011;10637;47.970;7.830;2023-07-31T21:54:19;11.93;;;3.93;;
20956;SDS011;10637;47.970;7.830;2023-07-31T21:59:20;10.20;;;3.90;;
20956;SDS011;10637;47.970;7.830;2023-07-31T22:04:22;9.83;;;3.90;;
20956;SDS011;10637;47.970;7.830;2023-07-31T22:09:24;11.17;;;4.43;;
20956;SDS011;10637;47.970;7.830;2023-07-31T22:14:33;11.90;;;4.50;;
20956;SDS011;10637;47.970;7.830;2023-07-31T22:19:35;12.77;;;4.20;;
20956;SDS011;10637;47.970;7.830;2023-07-31T22:24:37;12.07;;;4.03;;
20956;SDS011;10637;47.970;7.830;2023-07-31T22:29:39;12.03;;;4.23;;
20956;SDS011;10637;47.970;7.830;2023-07-31T22:34:44;10.53;;;4.07;;
20956;SDS011;10637;47.970;7.830;2023-07-31T22:39:48;11.83;;;4.20;;
20956;SDS011;10637;47.970;7.830;2023-07-31T22:44:50;10.23;;;4.23;;
20956;SDS011;10637;47.970;7.830;2023-07-31T22:49:52;10.27;;;4.30;;
20956;SDS011;10637;47.970;7.830;2023-07-31T22:54:53;12.33;;;4.10;;
20956;SDS011;10637;47.970;7.830;2023-07-31T22:59:56;10.47;;;3.73;;
20956;SDS011;10637;47.970;7.830;2023-07-31T23:05:01;11.03;;;4.03;;
20956;SDS011;10637;47.970;7.830;2023-07-31T23:10:03;10.93;;;5.03;;
20956;SDS011;10637;47.970;7.830;2023-07-31T23:15:05;12.27;;;4.37;;
20956;SDS011;10637;47.970;7.830;2023-07-31T23:20:08;12.10;;;4.43;;
20956;SDS011;10637;47.970;7.830;2023-07-31T23:25:11;10.47;;;4.40;;
20956;SDS011;10637;47.970;7.830;2023-07-31T23:30:13;10.50;;;4.37;;
20956;SDS011;10637;47.970;7.830;2023-07-31T23:35:15;10.67;;;4.10;;
20956;SDS011;10637;47.970;7.830;2023-07-31T23:40:16;12.77;;;4.27;;
20956;SDS011;10637;47.970;7.830;2023-07-31T23:45:20;11.10;;;4.10;;
20956;SDS011;10637;47.970;7.830;2023-07-31T23:50:22;10.10;;;4.43;;
20956;SDS011;10637;47.970;7.830;2023-07-31T23:55:24;10.03;;;4.47;;
